Login to view products.  
Friday, October 20, 2017 (19:25 UTC)
Abu Dhabi International Airport
Last Updated: 20-Oct-2017 (19:26Z)
Wind Dir/Speed: WNW at 07 kt
Temperature: 29.9°C
Rel. Humidity: 55 %
Pressure: 1010.6 hPa
Visibility: 10000 m
ACTUALS
  • METAR OMAA 201900Z 31009KT CAVOK 30/20 Q1010 NOSIG
  • TAF OMAA 201700Z 2018/2200 29005KT CAVOK BECMG 2023/2101 21004KT PROB30 TEMPO 2102/2104 4000 HZ BECMG 2106/2108 31012KT BECMG 2120/2122 VRB02KT=